Time;durP1;ratioP1;P1;durP2;ratioP2;P2;SDS_P1;SDS_P2;PMS_P1;PMS_P2;Temp;Humidity;BMP_temperature;BMP_pressure;BME280_temperature;BME280_humidity;BME280_pressure;Samples;Min_cycle;Max_cycle;Signal;HPM_P1;HPM_P2
2021/12/21 00:01:12;;;;;;;2.08;1.02;;;1.70;87.90;;;;;;5001057;28;20057;-67
2021/12/21 00:03:38;;;;;;;1.25;1.05;;;1.60;88.70;;;;;;4997138;28;20026;-66
2021/12/21 00:06:04;;;;;;;1.52;0.70;;;1.50;87.40;;;;;;5000134;28;21577;-67
2021/12/21 00:08:30;;;;;;;2.00;1.30;;;1.50;87.90;;;;;;4997057;28;20030;-66
2021/12/21 00:10:58;;;;;;;1.35;1.05;;;1.40;87.10;;;;;;4998365;28;20037;-66
2021/12/21 00:13:37;;;;;;;2.38;0.90;;;1.50;87.20;;;;;;4996734;28;20163;-67
2021/12/21 00:16:19;;;;;;;2.10;1.02;;;1.50;86.20;;;;;;4997492;28;20061;-64
2021/12/21 00:24:01;;;;;;;0.63;0.60;;;1.40;86.10;;;;;;5003821;28;20104;-66
2021/12/21 00:26:27;;;;;;;1.50;0.77;;;1.30;85.80;;;;;;5001007;28;20022;-65
2021/12/21 00:28:58;;;;;;;1.52;0.85;;;1.30;86.20;;;;;;5005225;28;20088;-66
2021/12/21 00:31:26;;;;;;;1.63;0.60;;;1.30;86.30;;;;;;4998715;28;20131;-65
2021/12/21 00:33:52;;;;;;;1.92;1.00;;;1.20;86.90;;;;;;5000995;28;20038;-64
2021/12/21 00:36:21;;;;;;;2.08;0.85;;;1.30;85.90;;;;;;4999575;28;20034;-67
2021/12/21 00:38:47;;;;;;;2.53;1.00;;;1.30;86.50;;;;;;4998900;28;20052;-66
2021/12/21 00:41:14;;;;;;;2.97;0.82;;;1.30;86.30;;;;;;5002819;28;20413;-68
2021/12/21 00:43:40;;;;;;;1.08;0.85;;;1.20;85.90;;;;;;5000379;28;20113;-64
2021/12/21 00:46:06;;;;;;;2.13;1.08;;;1.10;86.10;;;;;;4999447;28;20069;-65
2021/12/21 00:48:33;;;;;;;2.05;0.82;;;1.10;86.90;;;;;;5000302;28;20496;-66
2021/12/21 00:51:00;;;;;;;2.25;1.40;;;1.10;86.30;;;;;;5000820;28;20042;-67
2021/12/21 00:53:29;;;;;;;1.85;0.82;;;1.10;86.20;;;;;;4999647;28;20524;-67
2021/12/21 00:55:55;;;;;;;2.00;1.17;;;1.10;86.00;;;;;;4997546;28;20049;-67
2021/12/21 00:58:24;;;;;;;1.45;1.00;;;1.10;86.40;;;;;;5000999;28;20402;-68
2021/12/21 01:00:50;;;;;;;1.38;0.88;;;1.10;86.00;;;;;;4999577;28;20041;-67
2021/12/21 01:03:17;;;;;;;1.17;0.95;;;1.10;86.00;;;;;;4997477;28;20388;-68
2021/12/21 01:05:51;;;;;;;0.73;0.63;;;1.10;86.00;;;;;;5000662;28;20057;-67
2021/12/21 01:08:22;;;;;;;1.52;0.88;;;1.10;85.80;;;;;;5001827;28;20557;-66
2021/12/21 01:11:07;;;;;;;0.98;0.80;;;1.10;85.80;;;;;;5000367;28;20026;-67
2021/12/21 01:13:56;;;;;;;1.63;1.00;;;1.10;86.30;;;;;;5000811;28;20163;-68
2021/12/21 01:21:28;;;;;;;1.50;1.15;;;1.00;86.20;;;;;;4997135;28;20117;-67
2021/12/21 01:29:11;;;;;;;2.00;1.10;;;1.00;86.50;;;;;;5001919;28;20041;-68
2021/12/21 01:31:48;;;;;;;2.65;1.38;;;1.00;85.70;;;;;;4998469;28;20104;-67
2021/12/21 01:34:28;;;;;;;1.80;0.80;;;1.00;86.20;;;;;;4994196;28;20052;-67
2021/12/21 01:42:21;;;;;;;1.13;0.90;;;0.90;86.90;;;;;;5000299;28;20176;-68
2021/12/21 01:49:36;;;;;;;1.58;1.10;;;0.80;86.60;;;;;;4996695;28;20453;-66
2021/12/21 01:50:16;;;;;;;2.10;0.90;;;0.80;86.20;;;;;;5001224;28;20037;-67
2021/12/21 01:52:42;;;;;;;3.85;1.00;;;0.80;86.10;;;;;;5003831;28;20026;-68
2021/12/21 01:55:08;;;;;;;2.10;1.42;;;0.80;86.80;;;;;;5001056;28;20026;-67
2021/12/21 01:57:33;;;;;;;1.98;1.13;;;0.90;86.40;;;;;;4998154;28;20045;-68
2021/12/21 01:59:59;;;;;;;2.33;1.25;;;0.80;86.20;;;;;;5000699;28;20828;-68
2021/12/21 02:02:25;;;;;;;2.13;1.02;;;0.80;85.80;;;;;;4999457;28;20102;-67
2021/12/21 02:04:50;;;;;;;2.20;1.20;;;0.90;86.00;;;;;;4996196;28;20038;-67
2021/12/21 02:07:17;;;;;;;2.30;0.90;;;0.80;85.90;;;;;;5000039;28;20125;-69
2021/12/21 02:09:42;;;;;;;1.92;1.10;;;0.80;85.40;;;;;;5000071;28;20038;-68
2021/12/21 02:12:12;;;;;;;3.47;1.33;;;0.80;85.50;;;;;;4999240;28;20026;-68
2021/12/21 02:14:39;;;;;;;1.15;0.85;;;0.80;85.80;;;;;;5000521;28;20392;-68
2021/12/21 02:20:39;;;;;;;1.83;1.13;;;0.90;85.40;;;;;;5001865;28;20042;-67
2021/12/21 02:23:10;;;;;;;2.47;1.73;;;0.90;85.60;;;;;;5000892;28;20080;-67
2021/12/21 02:25:56;;;;;;;3.22;1.25;;;0.90;85.90;;;;;;4997000;28;20041;-68
2021/12/21 02:28:37;;;;;;;1.90;1.30;;;0.90;85.80;;;;;;5001931;28;20054;-68
2021/12/21 02:31:03;;;;;;;2.28;1.42;;;0.90;85.90;;;;;;4997821;28;20084;-67
2021/12/21 02:33:29;;;;;;;2.38;1.08;;;0.90;85.90;;;;;;5002233;28;20039;-67
2021/12/21 02:35:57;;;;;;;2.25;1.27;;;0.90;86.00;;;;;;5001485;28;20042;-68
2021/12/21 02:38:23;;;;;;;1.30;1.00;;;0.90;85.70;;;;;;4994876;28;20084;-68
2021/12/21 02:40:49;;;;;;;2.35;1.20;;;1.00;84.60;;;;;;4998871;28;20034;-68
2021/12/21 02:43:15;;;;;;;1.77;0.98;;;0.90;84.70;;;;;;4998791;28;20108;-68
2021/12/21 02:45:42;;;;;;;2.03;1.05;;;0.80;84.40;;;;;;4996702;28;20045;-68
2021/12/21 02:48:08;;;;;;;2.05;1.38;;;0.80;84.50;;;;;;4998950;28;20775;-67
2021/12/21 02:50:36;;;;;;;1.85;1.25;;;0.80;84.30;;;;;;4997748;28;20357;-67
2021/12/21 02:53:02;;;;;;;1.20;0.93;;;0.80;83.90;;;;;;4997256;28;20026;-67
2021/12/21 02:55:28;;;;;;;1.20;1.05;;;0.80;84.00;;;;;;4999755;28;20492;-68
2021/12/21 02:57:57;;;;;;;1.27;0.95;;;0.80;84.00;;;;;;5000882;28;20161;-68
2021/12/21 03:00:27;;;;;;;2.58;1.33;;;0.80;83.80;;;;;;4998775;28;20034;-67
2021/12/21 03:02:53;;;;;;;1.63;0.75;;;0.80;83.70;;;;;;4997430;28;20168;-68
2021/12/21 03:05:20;;;;;;;1.52;1.10;;;0.80;83.50;;;;;;4998103;28;20038;-67
2021/12/21 03:10:14;;;;;;;0.82;0.75;;;0.80;82.60;;;;;;5000255;28;20804;-68
2021/12/21 03:15:28;;;;;;;2.67;0.82;;;0.80;81.70;;;;;;4997314;28;20088;-68
2021/12/21 03:17:55;;;;;;;1.55;0.80;;;0.80;82.50;;;;;;5000287;28;20033;-69
2021/12/21 03:20:22;;;;;;;2.60;1.13;;;0.80;81.90;;;;;;4996508;28;20492;-67
2021/12/21 03:22:48;;;;;;;1.58;0.60;;;0.90;81.40;;;;;;4995801;28;20034;-68
2021/12/21 03:25:14;;;;;;;0.68;0.68;;;0.90;80.40;;;;;;4994908;28;20029;-68
2021/12/21 03:27:40;;;;;;;0.63;0.60;;;0.90;79.40;;;;;;4997091;28;20038;-68
2021/12/21 03:30:09;;;;;;;2.08;0.80;;;0.90;79.10;;;;;;5000238;28;20079;-65
2021/12/21 03:32:34;;;;;;;2.40;0.70;;;0.80;79.80;;;;;;4997865;28;20025;-67
2021/12/21 03:35:03;;;;;;;1.40;0.50;;;0.80;79.20;;;;;;4996801;28;20443;-67
2021/12/21 03:37:29;;;;;;;1.25;0.68;;;0.80;78.10;;;;;;4997345;28;20030;-68
2021/12/21 03:39:55;;;;;;;1.83;0.80;;;0.80;77.60;;;;;;4996595;28;20038;-67
2021/12/21 03:42:25;;;;;;;3.63;1.95;;;0.80;78.90;;;;;;4998170;28;20030;-67
2021/12/21 03:44:50;;;;;;;5.50;3.08;;;0.80;77.80;;;;;;4995639;28;20066;-68
2021/12/21 03:47:17;;;;;;;1.40;1.00;;;0.80;76.90;;;;;;4991426;28;20615;-67
2021/12/21 03:52:12;;;;;;;0.65;0.60;;;0.70;76.30;;;;;;5001514;28;20026;-68
2021/12/21 03:54:40;;;;;;;1.83;0.70;;;0.60;76.40;;;;;;5002080;28;20388;-68
2021/12/21 03:57:06;;;;;;;3.20;0.90;;;0.60;76.20;;;;;;5004054;28;20455;-68
2021/12/21 03:59:32;;;;;;;1.80;0.80;;;0.60;75.40;;;;;;5001460;28;20066;-69
2021/12/21 04:01:58;;;;;;;1.02;0.60;;;0.60;75.60;;;;;;4993811;28;20510;-68
2021/12/21 04:04:24;;;;;;;0.90;0.60;;;0.60;74.60;;;;;;4995161;28;20038;-67
2021/12/21 04:06:51;;;;;;;2.38;0.85;;;0.60;74.80;;;;;;4992709;28;20031;-67
2021/12/21 04:09:17;;;;;;;1.38;0.90;;;0.60;74.90;;;;;;4997768;28;20447;-67
2021/12/21 04:11:43;;;;;;;3.65;1.90;;;0.60;74.40;;;;;;4996015;28;20022;-67
2021/12/21 04:14:08;;;;;;;1.13;0.77;;;0.70;74.40;;;;;;5001461;28;20057;-67
2021/12/21 04:16:34;;;;;;;2.55;0.95;;;0.60;72.80;;;;;;4998595;28;20038;-67
2021/12/21 04:19:00;;;;;;;1.50;1.08;;;0.60;73.80;;;;;;5000034;28;20089;-68
2021/12/21 04:21:26;;;;;;;1.27;0.73;;;0.70;74.60;;;;;;5001729;28;20039;-68
2021/12/21 04:23:51;;;;;;;1.17;0.68;;;0.70;73.70;;;;;;5001499;28;20036;-68
2021/12/21 04:26:18;;;;;;;1.08;0.82;;;0.70;73.60;;;;;;5001788;28;20069;-68
2021/12/21 04:28:44;;;;;;;0.93;0.50;;;0.70;73.70;;;;;;5000433;28;20030;-68
2021/12/21 04:31:11;;;;;;;1.75;0.73;;;0.70;74.10;;;;;;5000359;28;20034;-67
2021/12/21 04:33:39;;;;;;;1.17;0.50;;;0.70;73.80;;;;;;5003963;28;20033;-68
2021/12/21 04:36:05;;;;;;;2.08;0.57;;;0.60;74.20;;;;;;5000573;28;20023;-67
2021/12/21 04:38:35;;;;;;;7.20;2.97;;;0.70;75.00;;;;;;5000737;28;20736;-67
2021/12/21 04:44:03;;;;;;;3.17;1.57;;;0.80;74.60;;;;;;4989975;28;20038;-67
2021/12/21 04:46:28;;;;;;;1.23;0.82;;;0.80;75.00;;;;;;5001560;28;20283;-67
2021/12/21 04:48:54;;;;;;;1.25;0.60;;;0.90;73.70;;;;;;5002439;28;20034;-67
2021/12/21 04:51:20;;;;;;;1.08;0.68;;;1.00;75.50;;;;;;5001299;28;20407;-67
2021/12/21 04:53:46;;;;;;;1.55;0.70;;;1.10;75.40;;;;;;5003145;28;20135;-68
2021/12/21 04:56:11;;;;;;;2.03;0.80;;;1.10;73.90;;;;;;5011282;28;20050;-68
2021/12/21 04:58:37;;;;;;;1.83;0.50;;;1.10;76.10;;;;;;5003879;28;20034;-68
2021/12/21 05:01:04;;;;;;;2.10;0.70;;;1.20;76.30;;;;;;4997910;28;20194;-66
2021/12/21 05:03:30;;;;;;;0.75;0.40;;;1.20;76.50;;;;;;5003252;28;20083;-67
2021/12/21 05:05:56;;;;;;;0.68;0.47;;;1.20;75.90;;;;;;5001219;28;20034;-67
2021/12/21 05:08:30;;;;;;;0.88;0.40;;;1.20;74.40;;;;;;4995775;28;21469;-67
2021/12/21 05:11:00;;;;;;;2.22;0.55;;;1.20;73.60;;;;;;4995175;28;20031;-67
2021/12/21 05:13:28;;;;;;;1.05;0.57;;;1.10;73.80;;;;;;5000343;28;20032;-67
2021/12/21 05:15:55;;;;;;;1.15;0.65;;;1.00;73.20;;;;;;4998893;28;20032;-66
2021/12/21 05:18:22;;;;;;;1.35;0.55;;;1.00;73.30;;;;;;4999356;28;20030;-67
2021/12/21 05:20:48;;;;;;;1.67;0.70;;;0.90;74.00;;;;;;4997506;28;20105;-67
2021/12/21 05:23:14;;;;;;;0.82;0.50;;;0.90;76.10;;;;;;4998456;28;20416;-66
2021/12/21 05:25:40;;;;;;;1.23;0.32;;;1.00;76.60;;;;;;5002418;28;20026;-67
2021/12/21 05:28:08;;;;;;;4.55;0.57;;;1.00;76.00;;;;;;5005632;28;20552;-66
2021/12/21 05:30:34;;;;;;;0.73;0.57;;;1.00;77.00;;;;;;5000576;28;20034;-66
2021/12/21 05:33:01;;;;;;;0.95;0.70;;;1.10;77.10;;;;;;5002448;28;20068;-67
2021/12/21 05:35:27;;;;;;;4.15;0.90;;;1.10;77.40;;;;;;5003085;28;20042;-67
2021/12/21 05:37:58;;;;;;;1.48;0.75;;;1.10;76.50;;;;;;4999976;28;20113;-67
2021/12/21 05:40:32;;;;;;;1.20;0.67;;;1.00;77.30;;;;;;4999758;28;20481;-66
2021/12/21 05:42:57;;;;;;;1.70;0.75;;;1.00;77.70;;;;;;4996891;28;20030;-67
2021/12/21 05:45:23;;;;;;;1.48;0.55;;;1.00;77.70;;;;;;4999256;28;20038;-66
2021/12/21 05:47:48;;;;;;;0.73;0.40;;;1.00;77.50;;;;;;5001226;28;20055;-68
2021/12/21 05:50:17;;;;;;;2.00;0.80;;;1.00;77.30;;;;;;4997642;28;20026;-68
2021/12/21 05:52:43;;;;;;;1.25;0.80;;;1.00;77.90;;;;;;4993656;28;20747;-68
2021/12/21 05:55:10;;;;;;;2.95;1.13;;;1.00;78.20;;;;;;4995209;28;20033;-67
2021/12/21 05:57:36;;;;;;;2.25;1.08;;;0.90;77.80;;;;;;4993756;28;20551;-68
2021/12/21 06:00:07;;;;;;;1.85;1.05;;;1.00;77.60;;;;;;4990832;28;20057;-68
2021/12/21 06:02:32;;;;;;;2.75;1.63;;;1.00;77.30;;;;;;4994107;28;20584;-68
2021/12/21 06:04:58;;;;;;;8.18;4.20;;;0.90;76.70;;;;;;4998973;28;20104;-66
2021/12/21 06:07:24;;;;;;;3.63;2.67;;;0.80;79.10;;;;;;4991788;28;20378;-65
2021/12/21 06:09:50;;;;;;;3.58;1.75;;;0.90;77.40;;;;;;4996062;28;20029;-67
2021/12/21 06:25:53;;;;;;;20.67;9.45;;;1.00;76.90;;;;;;5001340;28;20077;-66
2021/12/21 06:28:19;;;;;;;11.55;6.43;;;1.00;75.50;;;;;;4999493;28;20034;-65
2021/12/21 06:30:45;;;;;;;22.98;10.10;;;0.70;75.90;;;;;;5002181;28;20042;-65
2021/12/21 06:33:17;;;;;;;24.70;11.80;;;0.70;78.40;;;;;;5000821;28;20034;-66
2021/12/21 06:35:43;;;;;;;25.15;12.32;;;0.70;78.40;;;;;;4999788;28;20396;-66
2021/12/21 06:38:10;;;;;;;30.52;15.65;;;0.80;77.60;;;;;;5003278;28;20046;-66
2021/12/21 06:40:36;;;;;;;25.00;12.95;;;0.70;77.30;;;;;;4996637;28;20030;-66
2021/12/21 06:43:03;;;;;;;30.75;17.23;;;0.70;78.80;;;;;;5002729;28;20084;-67
2021/12/21 06:53:36;;;;;;;14.50;8.65;;;0.70;76.60;;;;;;5003410;28;20541;-66
2021/12/21 06:56:02;;;;;;;30.70;18.55;;;0.70;76.60;;;;;;5001557;28;20042;-66
2021/12/21 06:58:28;;;;;;;21.60;12.07;;;0.80;78.20;;;;;;4996206;28;21111;-64
2021/12/21 07:00:54;;;;;;;5.53;3.72;;;0.80;77.60;;;;;;5001964;28;20083;-65
2021/12/21 07:03:20;;;;;;;7.35;3.70;;;0.90;77.10;;;;;;5000715;28;20037;-66
2021/12/21 07:05:48;;;;;;;14.07;10.35;;;0.80;77.40;;;;;;5003767;28;20104;-65
2021/12/21 07:08:17;;;;;;;6.60;4.75;;;0.90;78.00;;;;;;5002663;28;20560;-66
2021/12/21 07:10:53;;;;;;;15.68;9.60;;;0.90;77.60;;;;;;4996398;28;20030;-65
2021/12/21 07:18:47;;;;;;;1.63;0.70;;;0.60;80.10;;;;;;4997237;28;20053;-65
2021/12/21 07:21:13;;;;;;;2.67;0.80;;;0.50;80.60;;;;;;5003112;28;20049;-66
2021/12/21 07:23:38;;;;;;;2.30;1.17;;;0.50;81.20;;;;;;5001765;28;20033;-65
2021/12/21 07:26:04;;;;;;;1.95;0.90;;;0.40;81.80;;;;;;5003004;28;20022;-65
2021/12/21 07:28:30;;;;;;;1.80;0.93;;;0.40;82.40;;;;;;4999015;28;20141;-65
2021/12/21 07:30:57;;;;;;;0.95;0.70;;;0.30;82.70;;;;;;5000869;28;20065;-65
2021/12/21 07:33:23;;;;;;;1.88;0.80;;;0.30;82.90;;;;;;5002761;28;20601;-65
2021/12/21 07:35:49;;;;;;;1.05;0.55;;;0.40;82.70;;;;;;4997510;28;20054;-65
2021/12/21 07:38:14;;;;;;;1.75;0.90;;;0.40;82.90;;;;;;5000544;28;20040;-66
2021/12/21 07:40:40;;;;;;;2.75;0.93;;;0.30;83.30;;;;;;4996553;28;20658;-65
2021/12/21 07:43:06;;;;;;;1.27;0.73;;;0.20;83.10;;;;;;4998721;28;20496;-65
2021/12/21 07:45:32;;;;;;;1.00;0.60;;;0.30;83.80;;;;;;5000727;28;20014;-65
2021/12/21 07:47:57;;;;;;;1.88;0.80;;;0.30;82.50;;;;;;4997388;28;20127;-65
2021/12/21 07:50:23;;;;;;;4.00;1.75;;;0.40;82.70;;;;;;4996720;28;20116;-66
2021/12/21 07:52:51;;;;;;;2.22;0.80;;;0.60;82.40;;;;;;5001762;28;20029;-65
2021/12/21 07:55:17;;;;;;;1.15;0.80;;;0.80;81.90;;;;;;4998128;28;20052;-66
2021/12/21 07:57:43;;;;;;;1.17;0.55;;;1.00;81.60;;;;;;5000154;28;20473;-65
2021/12/21 08:00:11;;;;;;;1.25;0.70;;;1.30;81.90;;;;;;4998408;28;20037;-64
2021/12/21 08:02:39;;;;;;;1.17;0.40;;;1.50;79.80;;;;;;5000811;28;20026;-66
2021/12/21 08:05:07;;;;;;;1.85;0.60;;;1.70;79.90;;;;;;5000860;28;20034;-65
2021/12/21 08:07:38;;;;;;;3.13;0.80;;;1.90;79.00;;;;;;5000256;28;20133;-65
2021/12/21 08:10:18;;;;;;;1.60;0.98;;;2.00;77.50;;;;;;4997672;28;20069;-64
2021/12/21 08:12:45;;;;;;;1.80;0.80;;;2.10;79.10;;;;;;4990119;28;20045;-66
2021/12/21 08:15:10;;;;;;;1.92;0.70;;;2.30;78.30;;;;;;4998498;28;20060;-66
2021/12/21 08:17:36;;;;;;;3.63;1.27;;;2.30;77.80;;;;;;4996605;28;20164;-66
2021/12/21 08:20:02;;;;;;;1.20;0.60;;;2.30;78.30;;;;;;4995193;28;20688;-65
2021/12/21 08:22:28;;;;;;;1.20;0.73;;;2.30;78.20;;;;;;4995888;28;20022;-66
2021/12/21 08:24:53;;;;;;;2.13;0.93;;;2.30;77.90;;;;;;4993062;28;20038;-65
2021/12/21 08:27:19;;;;;;;0.93;0.70;;;2.40;77.00;;;;;;4997572;28;20085;-66
2021/12/21 08:29:45;;;;;;;2.80;0.90;;;2.40;77.30;;;;;;4992638;28;20030;-66
2021/12/21 08:32:11;;;;;;;2.88;0.80;;;2.30;77.70;;;;;;4999697;28;20164;-65
2021/12/21 08:34:37;;;;;;;1.83;0.82;;;2.20;77.60;;;;;;4998813;28;20069;-65
2021/12/21 08:37:03;;;;;;;1.90;0.68;;;2.30;77.80;;;;;;5000664;28;20038;-66
2021/12/21 08:39:37;;;;;;;2.30;0.90;;;2.30;77.80;;;;;;5003235;28;20411;-67
2021/12/21 08:42:04;;;;;;;2.20;0.90;;;2.20;78.30;;;;;;4997316;28;20076;-66
2021/12/21 08:44:30;;;;;;;1.58;0.70;;;2.20;78.60;;;;;;5001226;28;20428;-67
2021/12/21 08:46:57;;;;;;;1.58;0.77;;;2.20;79.00;;;;;;5001892;28;21109;-66
2021/12/21 08:49:24;;;;;;;1.02;0.60;;;2.20;78.70;;;;;;5001927;28;20019;-66
2021/12/21 08:51:50;;;;;;;1.58;0.75;;;2.30;79.00;;;;;;4999519;28;20480;-66
2021/12/21 08:54:16;;;;;;;5.60;2.85;;;2.30;79.60;;;;;;5005005;28;20022;-67
2021/12/21 08:56:44;;;;;;;1.48;0.93;;;2.30;79.50;;;;;;5004299;28;20113;-66
2021/12/21 08:59:10;;;;;;;1.27;0.68;;;2.40;78.80;;;;;;5005842;28;20030;-66
2021/12/21 09:01:36;;;;;;;2.60;0.95;;;2.40;79.30;;;;;;5001239;28;20033;-66
2021/12/21 09:04:02;;;;;;;2.20;0.80;;;2.30;78.80;;;;;;5002493;28;20048;-67
2021/12/21 09:06:28;;;;;;;1.67;0.70;;;2.20;79.60;;;;;;4999206;28;20038;-66
2021/12/21 09:08:54;;;;;;;2.47;0.93;;;2.10;80.00;;;;;;5000651;28;20034;-67
2021/12/21 09:11:19;;;;;;;1.75;1.10;;;2.10;80.50;;;;;;5001515;28;20037;-67
2021/12/21 09:13:45;;;;;;;1.75;0.90;;;2.00;82.30;;;;;;4993621;28;20034;-67
2021/12/21 09:16:10;;;;;;;1.65;1.02;;;1.90;83.40;;;;;;4997307;28;20030;-65
2021/12/21 09:18:36;;;;;;;2.60;1.15;;;1.80;84.40;;;;;;5006035;28;20105;-67
2021/12/21 09:21:02;;;;;;;1.55;0.90;;;1.80;84.40;;;;;;5000054;28;20030;-67
2021/12/21 09:23:28;;;;;;;2.28;1.20;;;1.80;84.90;;;;;;5007145;28;20033;-67
2021/12/21 09:25:54;;;;;;;2.97;1.10;;;1.90;85.30;;;;;;5000644;28;20034;-67
2021/12/21 09:28:20;;;;;;;1.45;0.95;;;1.90;84.70;;;;;;5003060;28;20037;-66
2021/12/21 09:30:46;;;;;;;1.73;1.00;;;1.90;85.80;;;;;;4999178;28;20029;-67
2021/12/21 09:33:11;;;;;;;1.08;0.85;;;1.90;85.10;;;;;;5001033;28;20163;-67
2021/12/21 09:35:37;;;;;;;2.15;1.00;;;1.80;85.40;;;;;;5001829;28;20354;-67
2021/12/21 09:38:04;;;;;;;2.60;1.20;;;1.70;85.60;;;;;;4999365;28;20042;-67
2021/12/21 09:40:30;;;;;;;1.60;1.00;;;1.70;87.10;;;;;;4996880;28;20035;-67
2021/12/21 09:42:59;;;;;;;1.48;0.73;;;1.90;85.60;;;;;;4999081;28;20038;-66
2021/12/21 09:45:26;;;;;;;2.63;1.13;;;1.90;85.30;;;;;;4993547;28;20053;-67
2021/12/21 09:47:51;;;;;;;2.47;1.08;;;2.00;84.90;;;;;;4999780;28;20137;-67
2021/12/21 09:50:21;;;;;;;1.60;1.10;;;2.00;84.90;;;;;;4999708;28;20105;-67
2021/12/21 09:52:47;;;;;;;1.40;0.75;;;2.00;85.30;;;;;;4998662;28;20026;-67
2021/12/21 09:55:15;;;;;;;2.50;1.33;;;2.10;84.40;;;;;;4997292;28;20648;-66
2021/12/21 09:57:41;;;;;;;2.88;0.98;;;2.00;84.50;;;;;;4995434;28;20638;-66
2021/12/21 10:00:14;;;;;;;2.42;1.13;;;2.00;84.60;;;;;;4996665;28;20077;-66
2021/12/21 10:02:40;;;;;;;2.65;1.30;;;2.00;85.70;;;;;;5001298;28;20029;-67
2021/12/21 10:05:09;;;;;;;1.83;0.80;;;2.10;84.80;;;;;;4998996;28;20034;-67
2021/12/21 10:07:36;;;;;;;2.90;0.90;;;2.30;84.40;;;;;;4999579;28;20061;-66
2021/12/21 10:10:15;;;;;;;1.33;1.00;;;2.30;82.70;;;;;;4999714;28;20038;-67
2021/12/21 10:12:44;;;;;;;1.73;0.93;;;2.30;82.70;;;;;;4998283;28;20060;-67
2021/12/21 10:15:17;;;;;;;2.10;0.80;;;2.20;82.20;;;;;;4995446;28;20032;-67
2021/12/21 10:17:54;;;;;;;1.52;0.73;;;2.30;81.60;;;;;;5000197;28;20042;-67
2021/12/21 10:20:49;;;;;;;1.35;0.80;;;2.30;81.80;;;;;;4996725;28;20038;-67
2021/12/21 10:23:24;;;;;;;1.98;0.50;;;2.40;82.50;;;;;;4991127;28;20073;-67
2021/12/21 10:26:01;;;;;;;1.63;0.68;;;2.50;80.30;;;;;;5001717;28;20018;-67
2021/12/21 10:28:36;;;;;;;1.65;0.65;;;2.50;78.60;;;;;;5001909;28;20052;-67
2021/12/21 10:31:25;;;;;;;1.95;0.90;;;2.50;78.50;;;;;;4999451;28;20025;-67
2021/12/21 10:33:52;;;;;;;1.92;1.10;;;2.50;78.80;;;;;;4999616;28;20045;-67
2021/12/21 10:36:17;;;;;;;0.88;0.77;;;2.50;77.80;;;;;;5001066;28;20026;-68
2021/12/21 10:38:54;;;;;;;1.77;0.85;;;2.50;76.50;;;;;;4997357;28;20034;-67
2021/12/21 10:41:29;;;;;;;1.77;0.80;;;2.60;76.20;;;;;;5002977;28;20033;-67
2021/12/21 10:44:03;;;;;;;0.82;0.50;;;2.50;77.50;;;;;;5002158;28;20018;-68
2021/12/21 10:46:36;;;;;;;0.57;0.40;;;2.60;75.80;;;;;;4999712;28;20018;-68
2021/12/21 10:49:09;;;;;;;1.60;0.70;;;2.60;74.80;;;;;;5001325;28;20026;-68
2021/12/21 10:51:36;;;;;;;1.33;0.70;;;2.60;73.90;;;;;;5001356;28;20054;-67
2021/12/21 10:54:02;;;;;;;1.95;0.82;;;2.60;74.40;;;;;;4997651;28;20534;-67
2021/12/21 10:56:28;;;;;;;1.73;0.77;;;2.60;74.70;;;;;;4999966;28;20037;-68
2021/12/21 10:58:54;;;;;;;2.30;0.88;;;2.60;75.60;;;;;;4994669;28;20038;-67
2021/12/21 11:01:27;;;;;;;0.80;0.80;;;2.70;76.60;;;;;;4998388;28;20076;-67
2021/12/21 11:03:55;;;;;;;3.63;1.08;;;2.70;78.30;;;;;;4995692;28;20034;-68
2021/12/21 11:06:30;;;;;;;0.93;0.70;;;2.70;78.20;;;;;;4995909;28;20125;-67
2021/12/21 11:08:57;;;;;;;1.02;0.73;;;2.60;77.20;;;;;;4999865;28;20062;-66
2021/12/21 11:11:29;;;;;;;1.20;0.95;;;2.70;76.90;;;;;;4997309;28;20033;-68
2021/12/21 11:14:05;;;;;;;3.75;1.27;;;2.70;77.40;;;;;;4998801;28;20052;-67
2021/12/21 11:16:43;;;;;;;1.73;1.15;;;2.70;79.70;;;;;;4998940;28;20798;-67
2021/12/21 11:19:11;;;;;;;2.35;1.15;;;2.70;80.90;;;;;;4996896;28;20034;-68
2021/12/21 11:21:38;;;;;;;0.80;0.70;;;2.70;80.20;;;;;;4998631;28;20038;-68
2021/12/21 11:24:09;;;;;;;1.45;1.33;;;2.80;77.70;;;;;;4995929;28;20041;-66
2021/12/21 11:26:36;;;;;;;2.38;0.90;;;2.80;76.70;;;;;;4996776;28;20026;-68
2021/12/21 11:29:06;;;;;;;1.98;1.08;;;2.80;77.00;;;;;;4997050;28;20034;-66
2021/12/21 11:31:40;;;;;;;1.63;0.90;;;2.70;77.70;;;;;;4992939;28;20682;-67
2021/12/21 11:34:12;;;;;;;1.77;0.98;;;2.70;78.00;;;;;;4994382;28;20180;-66
2021/12/21 11:39:23;;;;;;;1.88;1.13;;;2.70;78.30;;;;;;4989396;28;20049;-66
2021/12/21 11:41:50;;;;;;;1.30;0.93;;;2.70;78.50;;;;;;5000317;28;20030;-66
2021/12/21 11:44:30;;;;;;;1.90;1.17;;;2.70;77.10;;;;;;4994182;28;20030;-67
2021/12/21 11:47:03;;;;;;;1.08;0.90;;;2.70;78.40;;;;;;4996781;28;20523;-67
2021/12/21 11:49:34;;;;;;;1.00;0.80;;;2.70;78.40;;;;;;4995756;28;20042;-67
2021/12/21 11:52:18;;;;;;;1.45;1.10;;;2.80;77.60;;;;;;4997228;28;20092;-66
2021/12/21 11:54:49;;;;;;;1.88;1.33;;;2.70;77.30;;;;;;4992771;28;20489;-67
2021/12/21 11:57:18;;;;;;;2.38;1.60;;;2.70;79.30;;;;;;4996233;28;20560;-66
2021/12/21 11:59:48;;;;;;;8.05;4.85;;;2.70;77.90;;;;;;4997055;28;20068;-66
2021/12/21 12:02:14;;;;;;;8.50;4.15;;;2.70;78.70;;;;;;4997112;28;20459;-66
2021/12/21 12:04:40;;;;;;;7.82;4.65;;;2.70;79.90;;;;;;4997553;28;20030;-67
2021/12/21 12:07:18;;;;;;;7.55;4.90;;;2.70;79.30;;;;;;5001052;28;20755;-67
2021/12/21 12:09:44;;;;;;;6.40;3.70;;;2.80;79.90;;;;;;4998154;28;20048;-67
2021/12/21 12:12:18;;;;;;;6.28;3.85;;;2.80;78.40;;;;;;5002162;28;20022;-67
2021/12/21 12:14:46;;;;;;;2.55;1.33;;;2.80;79.50;;;;;;5001580;28;20018;-66
2021/12/21 12:17:13;;;;;;;7.80;4.28;;;2.80;79.30;;;;;;5001654;28;21095;-67
2021/12/21 12:19:43;;;;;;;5.53;3.25;;;2.80;80.10;;;;;;5002887;28;20499;-67
2021/12/21 12:22:13;;;;;;;4.88;2.80;;;2.80;80.10;;;;;;5004280;28;20496;-67
2021/12/21 12:24:41;;;;;;;20.95;11.57;;;2.80;80.80;;;;;;5000703;28;20105;-67
2021/12/21 12:27:19;;;;;;;2.60;1.65;;;2.80;80.70;;;;;;5000201;28;20037;-67
2021/12/21 12:29:53;;;;;;;5.22;2.75;;;2.90;80.40;;;;;;5000916;28;20629;-67
2021/12/21 12:32:31;;;;;;;2.28;1.60;;;2.90;78.50;;;;;;5001351;28;20026;-67
2021/12/21 12:35:04;;;;;;;2.35;1.17;;;3.00;79.70;;;;;;5004356;28;20062;-67
2021/12/21 12:37:30;;;;;;;5.10;2.55;;;3.00;77.90;;;;;;5002407;28;20064;-66
2021/12/21 12:40:05;;;;;;;4.63;3.22;;;2.90;76.40;;;;;;5006252;28;20476;-67
2021/12/21 12:42:33;;;;;;;4.60;2.63;;;3.00;78.10;;;;;;5002315;28;20025;-67
2021/12/21 12:45:33;;;;;;;3.42;1.85;;;3.10;78.00;;;;;;5001939;28;20022;-66
2021/12/21 12:47:59;;;;;;;4.53;1.30;;;3.20;76.20;;;;;;4997108;28;20045;-66
2021/12/21 12:50:28;;;;;;;2.97;1.95;;;3.20;75.90;;;;;;5002760;28;20030;-67
2021/12/21 12:52:58;;;;;;;4.47;2.92;;;3.20;76.50;;;;;;4997137;28;20120;-67
2021/12/21 12:55:34;;;;;;;2.70;1.55;;;3.20;77.50;;;;;;5004113;28;20026;-67
2021/12/21 12:58:04;;;;;;;4.03;1.83;;;3.20;76.70;;;;;;5001279;28;20038;-67
2021/12/21 13:00:32;;;;;;;2.13;1.23;;;3.20;75.50;;;;;;4997071;28;20648;-67
2021/12/21 13:03:03;;;;;;;3.58;1.52;;;3.30;75.90;;;;;;4997225;28;20041;-67
2021/12/21 13:05:37;;;;;;;1.33;0.93;;;3.30;75.50;;;;;;4998467;28;20049;-66
2021/12/21 13:08:09;;;;;;;1.98;1.50;;;3.30;74.60;;;;;;4998451;28;20038;-67
2021/12/21 13:10:37;;;;;;;1.27;1.15;;;3.30;74.00;;;;;;4997699;28;20053;-66
2021/12/21 13:13:03;;;;;;;2.35;1.02;;;3.30;75.40;;;;;;4997052;28;20121;-66
2021/12/21 13:15:36;;;;;;;0.98;0.90;;;3.20;75.40;;;;;;5003805;28;20038;-65
2021/12/21 13:18:05;;;;;;;2.05;1.23;;;3.30;75.90;;;;;;4996312;28;20029;-65
2021/12/21 13:20:33;;;;;;;4.30;2.20;;;3.20;76.90;;;;;;4998644;28;20485;-65
2021/12/21 13:23:12;;;;;;;1.52;1.23;;;3.30;77.90;;;;;;5000408;28;20034;-66
2021/12/21 13:25:38;;;;;;;3.55;1.92;;;3.50;77.10;;;;;;5000215;28;20465;-66
2021/12/21 13:28:11;;;;;;;2.40;1.25;;;3.50;76.10;;;;;;5002725;28;20038;-66
2021/12/21 13:30:44;;;;;;;1.95;1.33;;;3.60;75.50;;;;;;4996717;28;20084;-64
2021/12/21 13:33:10;;;;;;;2.70;1.20;;;3.90;75.70;;;;;;4997908;28;20045;-66
2021/12/21 13:35:42;;;;;;;2.85;2.03;;;4.20;76.10;;;;;;4991303;28;20040;-65
2021/12/21 13:38:14;;;;;;;4.18;2.22;;;4.30;73.10;;;;;;4997016;28;20106;-66
2021/12/21 13:40:40;;;;;;;3.45;2.47;;;4.30;72.80;;;;;;4988660;28;20104;-65
2021/12/21 13:43:12;;;;;;;2.13;1.05;;;4.20;72.30;;;;;;4992590;28;20034;-66
2021/12/21 13:45:40;;;;;;;1.90;1.42;;;4.00;71.30;;;;;;4997109;28;20044;-66
2021/12/21 13:48:14;;;;;;;1.50;1.08;;;4.40;72.70;;;;;;4992968;28;20046;-66
2021/12/21 13:50:39;;;;;;;2.63;1.42;;;4.80;71.60;;;;;;4998548;28;20038;-66
2021/12/21 13:53:05;;;;;;;3.67;1.45;;;5.10;71.00;;;;;;4994909;28;20022;-67
2021/12/21 13:55:40;;;;;;;21.88;12.30;;;5.30;69.60;;;;;;4996295;28;20034;-67
2021/12/21 13:58:09;;;;;;;2.40;1.80;;;5.50;70.30;;;;;;4994924;28;20046;-67
2021/12/21 14:00:43;;;;;;;3.33;1.60;;;5.70;69.20;;;;;;4990929;28;20076;-67
2021/12/21 14:03:20;;;;;;;2.92;1.60;;;5.50;68.40;;;;;;4994485;28;20095;-68
2021/12/21 14:05:54;;;;;;;4.70;2.67;;;5.40;69.40;;;;;;5002537;28;20030;-69
2021/12/21 14:08:20;;;;;;;86.05;40.92;;;5.10;70.00;;;;;;4997397;28;20618;-66
2021/12/21 14:10:49;;;;;;;3.53;2.13;;;4.70;71.50;;;;;;4994690;28;20151;-68